createdAt,value
2019-01-27T00:03:41.881Z,1
2019-01-27T00:08:44.308Z,1
2019-01-27T00:13:46.768Z,1
2019-01-27T00:18:49.205Z,1
2019-01-27T00:23:51.698Z,1
2019-01-27T00:28:54.187Z,1
2019-01-27T00:33:56.575Z,1
2019-01-27T00:38:59.038Z,1
2019-01-27T00:44:01.512Z,1
2019-01-27T00:49:03.983Z,1
2019-01-27T00:54:06.426Z,1
2019-01-27T00:59:08.896Z,1
2019-01-27T01:04:11.324Z,1
2019-01-27T01:09:13.791Z,1
2019-01-27T01:14:16.286Z,1
2019-01-27T01:19:18.717Z,1
2019-01-27T01:24:21.190Z,1
2019-01-27T01:29:23.609Z,1
2019-01-27T01:34:26.068Z,1
2019-01-27T01:39:28.531Z,1
2019-01-27T01:44:31.020Z,1
2019-01-27T01:49:33.431Z,1
2019-01-27T01:54:35.889Z,1
2019-01-27T01:59:38.342Z,1
2019-01-27T02:04:40.886Z,1
2019-01-27T02:09:43.279Z,1
2019-01-27T02:14:45.716Z,1
2019-01-27T02:19:48.174Z,1
2019-01-27T02:24:50.628Z,1
2019-01-27T02:29:53.103Z,1
2019-01-27T02:34:55.535Z,1
2019-01-27T02:39:58.012Z,1
2019-01-27T02:45:00.526Z,1
2019-01-27T02:50:02.964Z,1
2019-01-27T02:55:05.381Z,0
2019-01-27T03:00:07.832Z,1
2019-01-27T03:05:10.288Z,1
2019-01-27T03:10:12.774Z,1
2019-01-27T03:15:15.234Z,1
2019-01-27T03:20:17.659Z,1
2019-01-27T03:25:20.131Z,1
2019-01-27T03:30:22.606Z,1
2019-01-27T03:35:25.014Z,1
2019-01-27T03:40:27.503Z,1
2019-01-27T03:45:29.943Z,1
2019-01-27T03:50:32.458Z,1
2019-01-27T03:55:34.941Z,0
2019-01-27T04:00:37.323Z,1
2019-01-27T04:05:39.824Z,1
2019-01-27T04:10:42.223Z,1
2019-01-27T04:15:44.671Z,1
2019-01-27T04:20:47.185Z,1
2019-01-27T04:25:49.606Z,1
2019-01-27T04:30:52.087Z,1
2019-01-27T04:35:54.531Z,1
2019-01-27T04:40:56.967Z,1
2019-01-27T04:45:59.428Z,1
2019-01-27T04:51:01.901Z,1
2019-01-27T04:56:04.331Z,1
2019-01-27T05:01:06.795Z,1
2019-01-27T05:06:09.291Z,1
2019-01-27T05:11:11.717Z,1
2019-01-27T05:16:14.175Z,1
2019-01-27T05:21:16.647Z,1
2019-01-27T05:26:19.100Z,1
2019-01-27T05:31:21.559Z,1
2019-01-27T05:36:23.987Z,1
2019-01-27T05:46:28.921Z,1
2019-01-27T05:51:31.429Z,1
2019-01-27T05:56:33.831Z,1
2019-01-27T06:01:36.380Z,2
2019-01-27T06:06:38.739Z,1
2019-01-27T06:11:41.284Z,2
2019-01-27T06:16:43.645Z,2
2019-01-27T06:21:46.090Z,2
2019-01-27T06:26:48.549Z,2
2019-01-27T06:31:51.023Z,3
2019-01-27T06:36:53.496Z,2
2019-01-27T06:41:55.935Z,2
2019-01-27T06:46:58.394Z,2
2019-01-27T06:52:00.881Z,2
2019-01-27T06:57:03.304Z,2
2019-01-27T07:02:05.758Z,2
2019-01-27T07:07:08.241Z,2
2019-01-27T07:12:10.752Z,3
2019-01-27T07:17:13.134Z,2
2019-01-27T07:22:15.589Z,3
2019-01-27T07:27:18.049Z,7
2019-01-27T07:32:20.504Z,5
2019-01-27T07:37:22.966Z,3
2019-01-27T07:42:25.399Z,2
2019-01-27T07:47:27.871Z,2
2019-01-27T07:52:30.332Z,2
2019-01-27T07:57:32.796Z,3
2019-01-27T08:02:35.247Z,2
2019-01-27T08:07:37.697Z,2
2019-01-27T08:12:40.174Z,2
2019-01-27T08:17:42.612Z,3
2019-01-27T08:22:45.083Z,2
2019-01-27T08:27:47.546Z,4
2019-01-27T08:32:49.999Z,2
2019-01-27T08:37:52.430Z,2
2019-01-27T08:42:54.934Z,3
2019-01-27T08:47:57.430Z,3
2019-01-27T08:52:59.816Z,3
2019-01-27T08:58:02.306Z,3
2019-01-27T09:03:04.792Z,3
2019-01-27T09:08:07.219Z,1
2019-01-27T09:13:11.229Z,1
2019-01-27T09:18:12.280Z,2
2019-01-27T09:23:14.576Z,1
2019-01-27T09:28:17.076Z,1
2019-01-27T09:33:19.596Z,1
2019-01-27T09:38:21.945Z,1
2019-01-27T09:43:24.443Z,1
2019-01-27T09:48:26.885Z,2
2019-01-27T09:53:29.318Z,1
2019-01-27T09:58:31.775Z,1
2019-01-27T10:03:34.318Z,2
2019-01-27T10:08:36.754Z,1
2019-01-27T10:13:39.181Z,1
2019-01-27T10:18:41.663Z,1
2019-01-27T10:23:44.073Z,2
2019-01-27T10:28:46.547Z,1
2019-01-27T10:33:48.989Z,1
2019-01-27T10:38:51.452Z,1
2019-01-27T10:43:53.933Z,1
2019-01-27T10:48:56.369Z,1
2019-01-27T10:53:58.818Z,1
2019-01-27T10:59:01.310Z,1
2019-01-27T11:04:03.726Z,1
2019-01-27T11:09:06.185Z,1
2019-01-27T11:14:08.641Z,0
2019-01-27T11:19:11.175Z,1
2019-01-27T11:24:13.549Z,1
2019-01-27T11:29:15.993Z,1
2019-01-27T11:34:18.478Z,1
2019-01-27T11:39:20.921Z,1
2019-01-27T11:44:23.364Z,1
2019-01-27T11:49:26.113Z,1
2019-01-27T11:54:28.281Z,1
2019-01-27T11:59:30.737Z,1
2019-01-27T12:04:33.218Z,1
2019-01-27T12:09:35.657Z,1
2019-01-27T12:14:38.109Z,1
2019-01-27T12:19:40.665Z,1
2019-01-27T12:24:43.062Z,0
2019-01-27T12:29:45.483Z,1
2019-01-27T12:34:47.945Z,1
2019-01-27T12:39:50.392Z,1
2019-01-27T12:44:52.851Z,1
2019-01-27T12:49:55.324Z,1
2019-01-27T12:54:57.776Z,2
2019-01-27T13:00:00.255Z,2
2019-01-27T13:05:02.714Z,1
2019-01-27T13:10:05.272Z,2
2019-01-27T13:15:07.605Z,1
2019-01-27T13:20:10.068Z,1
2019-01-27T13:25:12.513Z,1
2019-01-27T13:30:14.985Z,1
2019-01-27T13:35:17.525Z,1
2019-01-27T13:40:19.878Z,1
2019-01-27T13:45:22.336Z,0
2019-01-27T13:50:25.097Z,1
2019-01-27T13:55:27.244Z,2
2019-01-27T14:00:29.715Z,1
2019-01-27T14:05:32.185Z,1
2019-01-27T14:10:34.661Z,1
2019-01-27T14:15:37.099Z,1
2019-01-27T14:20:39.535Z,1
2019-01-27T14:25:42.053Z,2
2019-01-27T14:30:44.457Z,1
2019-01-27T14:35:46.919Z,2
2019-01-27T14:40:49.362Z,6
2019-01-27T14:45:51.832Z,1
2019-01-27T14:50:54.291Z,1
2019-01-27T14:55:56.726Z,1
2019-01-27T15:00:59.186Z,1
2019-01-27T15:06:01.691Z,2
2019-01-27T15:11:04.103Z,1
2019-01-27T15:16:06.562Z,1
2019-01-27T15:21:09.022Z,1
2019-01-27T15:26:11.483Z,1
2019-01-27T15:31:13.977Z,1
2019-01-27T15:36:16.455Z,1
2019-01-27T15:41:18.847Z,1
2019-01-27T15:46:21.398Z,2
2019-01-27T15:51:23.777Z,1
2019-01-27T15:56:26.233Z,2
2019-01-27T16:01:28.681Z,2
2019-01-27T16:06:31.246Z,2
2019-01-27T16:11:33.636Z,2
2019-01-27T16:16:36.075Z,2
2019-01-27T16:21:38.507Z,2
2019-01-27T16:26:40.968Z,2
2019-01-27T16:31:43.423Z,2
2019-01-27T16:36:45.889Z,3
2019-01-27T16:41:48.377Z,3
2019-01-27T16:46:50.803Z,4
2019-01-27T16:51:53.265Z,4
2019-01-27T16:56:55.708Z,5
2019-01-27T17:01:59.082Z,3
2019-01-27T17:07:00.699Z,3
2019-01-27T17:12:03.110Z,2
2019-01-27T17:17:05.537Z,3
2019-01-27T17:22:08.028Z,4
2019-01-27T17:27:10.447Z,6
2019-01-27T17:32:12.901Z,4
2019-01-27T17:37:15.436Z,7
2019-01-27T17:42:17.858Z,11
2019-01-27T17:47:20.279Z,7
2019-01-27T17:52:22.754Z,6
2019-01-27T17:57:25.247Z,9
2019-01-27T18:02:27.671Z,3
2019-01-27T18:07:30.119Z,3
2019-01-27T18:12:32.683Z,5
2019-01-27T18:17:35.034Z,3
2019-01-27T18:22:37.500Z,3
2019-01-27T18:27:39.938Z,3
2019-01-27T18:32:42.410Z,2
2019-01-27T18:37:44.851Z,3
2019-01-27T18:42:47.386Z,10
2019-01-27T18:47:49.768Z,3
2019-01-27T18:52:52.222Z,5
2019-01-27T18:57:54.692Z,3
2019-01-27T19:02:57.137Z,3
2019-01-27T19:07:59.588Z,4
2019-01-27T19:13:02.104Z,2
2019-01-27T19:18:04.540Z,4
2019-01-27T19:23:06.999Z,3
2019-01-27T19:28:09.417Z,3
2019-01-27T19:33:11.895Z,3
2019-01-27T19:38:14.376Z,2
2019-01-27T19:43:16.809Z,4
2019-01-27T19:48:19.335Z,3
2019-01-27T19:53:21.796Z,4
2019-01-27T19:58:24.189Z,4
2019-01-27T20:03:26.624Z,4
2019-01-27T20:08:29.121Z,4
2019-01-27T20:13:31.558Z,4
2019-01-27T20:18:33.993Z,3
2019-01-27T20:23:36.587Z,3
2019-01-27T20:28:38.920Z,2
2019-01-27T20:33:41.362Z,3
2019-01-27T20:38:43.819Z,3
2019-01-27T20:43:46.365Z,3
2019-01-27T20:48:48.769Z,3
2019-01-27T20:53:51.271Z,3
2019-01-27T20:58:53.648Z,3
2019-01-27T21:03:56.102Z,3
2019-01-27T21:08:58.579Z,4
2019-01-27T21:14:01.025Z,3
2019-01-27T21:19:03.478Z,3
2019-01-27T21:24:05.929Z,3
2019-01-27T21:29:08.389Z,3
2019-01-27T21:34:10.849Z,3
2019-01-27T21:39:13.400Z,3
2019-01-27T21:44:15.768Z,3
2019-01-27T21:49:18.214Z,3
2019-01-27T21:54:20.760Z,3
2019-01-27T21:59:23.140Z,3
2019-01-27T22:04:25.653Z,3
2019-01-27T22:09:28.131Z,3
2019-01-27T22:14:30.535Z,3
2019-01-27T22:19:32.990Z,3
2019-01-27T22:24:35.431Z,3
2019-01-27T22:29:37.862Z,5
2019-01-27T22:34:40.329Z,3
2019-01-27T22:39:42.793Z,4
2019-01-27T22:44:45.524Z,4
2019-01-27T22:49:47.708Z,4
2019-01-27T22:54:50.193Z,4
2019-01-27T22:59:52.628Z,3
2019-01-27T23:04:55.069Z,3
2019-01-27T23:09:57.540Z,3
2019-01-27T23:14:59.988Z,3
2019-01-27T23:20:02.619Z,3
2019-01-27T23:25:04.932Z,3
2019-01-27T23:30:07.391Z,4
2019-01-27T23:35:09.810Z,3
2019-01-27T23:40:12.304Z,4
2019-01-27T23:45:14.743Z,4
2019-01-27T23:50:17.185Z,2
2019-01-27T23:55:19.645Z,3
